createdAt,value
2022-08-12T00:00:30.586Z,0.00
2022-08-12T00:02:04.218Z,0.00
2022-08-12T00:02:32.524Z,0.00
2022-08-12T00:03:30.641Z,0.00
2022-08-12T00:04:30.549Z,0.00
2022-08-12T00:05:30.647Z,0.00
2022-08-12T00:06:30.566Z,0.00
2022-08-12T00:07:30.516Z,0.00
2022-08-12T00:08:36.814Z,0.00
2022-08-12T00:09:31.506Z,0.00
2022-08-12T00:10:30.511Z,0.00
2022-08-12T00:11:30.523Z,0.00
2022-08-12T00:12:31.342Z,0.00
2022-08-12T00:13:30.458Z,0.00
2022-08-12T00:14:30.459Z,0.00
2022-08-12T00:15:30.444Z,0.00
2022-08-12T00:16:30.484Z,0.00
2022-08-12T00:17:30.469Z,0.00
2022-08-12T00:18:30.459Z,0.00
2022-08-12T00:19:30.425Z,0.00
2022-08-12T00:20:30.435Z,0.00
2022-08-12T00:21:30.406Z,0.00
2022-08-12T00:22:30.495Z,0.00
2022-08-12T00:23:30.386Z,0.00
2022-08-12T00:24:30.393Z,0.00
2022-08-12T00:25:55.777Z,0.00
2022-08-12T00:26:31.358Z,0.00
2022-08-12T00:27:43.978Z,0.00
2022-08-12T00:28:31.369Z,0.00
2022-08-12T00:29:30.352Z,0.00
2022-08-12T00:30:30.364Z,0.00
2022-08-12T00:31:30.357Z,0.00
2022-08-12T00:32:54.831Z,0.00
2022-08-12T00:33:38.537Z,0.00
2022-08-12T00:34:31.337Z,0.00
2022-08-12T00:35:34.259Z,0.00
2022-08-12T00:36:36.199Z,0.00
2022-08-12T00:37:31.278Z,0.00
2022-08-12T00:38:30.286Z,0.00
2022-08-12T00:39:30.293Z,0.00
2022-08-12T00:40:30.298Z,0.00
2022-08-12T00:41:30.258Z,0.00
2022-08-12T00:42:30.267Z,0.00
2022-08-12T00:43:30.267Z,0.00
2022-08-12T00:44:30.238Z,0.00
2022-08-12T00:45:30.247Z,0.00
2022-08-12T00:46:30.221Z,0.00
2022-08-12T00:47:30.231Z,0.00
2022-08-12T00:48:30.262Z,0.00
2022-08-12T00:49:30.216Z,0.00
2022-08-12T00:50:30.209Z,0.00
2022-08-12T00:51:30.163Z,0.00
2022-08-12T00:52:30.181Z,0.00
2022-08-12T00:53:30.156Z,0.00
2022-08-12T00:54:32.164Z,0.00
2022-08-12T00:55:30.134Z,0.00
2022-08-12T00:56:30.141Z,0.00
2022-08-12T00:57:30.121Z,0.00
2022-08-12T00:58:30.138Z,0.00
2022-08-12T00:59:30.109Z,0.00
2022-08-12T01:00:30.120Z,0.00
2022-08-12T01:01:30.165Z,0.00
2022-08-12T01:02:31.126Z,0.00
2022-08-12T01:03:30.092Z,0.00
2022-08-12T01:04:30.069Z,0.00
2022-08-12T01:05:30.076Z,0.00
2022-08-12T01:06:30.073Z,0.00
2022-08-12T01:07:30.073Z,0.00
2022-08-12T01:08:30.049Z,0.00
2022-08-12T01:09:30.068Z,0.00
2022-08-12T01:10:32.982Z,0.00
2022-08-12T01:11:30.023Z,0.00
2022-08-12T01:12:30.079Z,0.00
2022-08-12T01:13:30.030Z,0.00
2022-08-12T01:14:30.023Z,0.00
2022-08-12T01:15:30.011Z,0.00
2022-08-12T01:16:30.007Z,0.00
2022-08-12T01:17:29.986Z,0.00
2022-08-12T01:18:30.001Z,0.00
2022-08-12T01:19:30.006Z,0.00
2022-08-12T01:20:29.950Z,0.00
2022-08-12T01:21:29.938Z,0.00
2022-08-12T01:22:30.010Z,0.00
2022-08-12T01:23:29.921Z,0.00
2022-08-12T01:24:31.877Z,0.00
2022-08-12T01:25:29.931Z,0.00
2022-08-12T01:26:29.892Z,0.00
2022-08-12T01:27:29.901Z,0.00
2022-08-12T01:28:29.883Z,0.00
2022-08-12T01:29:32.981Z,0.00
2022-08-12T01:30:29.863Z,0.00
2022-08-12T01:31:29.858Z,0.00
2022-08-12T01:32:29.969Z,0.00
2022-08-12T01:33:29.851Z,0.00
2022-08-12T01:34:36.121Z,0.00
2022-08-12T01:35:30.850Z,0.00
2022-08-12T01:36:29.827Z,0.00
2022-08-12T01:37:29.822Z,0.00
2022-08-12T01:38:30.320Z,0.00
2022-08-12T01:39:29.874Z,0.00
2022-08-12T01:40:34.098Z,0.00
2022-08-12T01:41:30.801Z,0.00
2022-08-12T01:42:29.794Z,0.00
2022-08-12T01:43:29.791Z,0.00
2022-08-12T01:44:29.768Z,0.00
2022-08-12T02:02:35.634Z,0.00
2022-08-12T02:03:35.598Z,0.00
2022-08-12T02:04:35.594Z,0.00
2022-08-12T02:05:35.584Z,0.00
2022-08-12T02:06:35.611Z,0.00
2022-08-12T02:07:36.754Z,0.00
2022-08-12T02:08:36.726Z,0.00
2022-08-12T02:09:36.732Z,0.00
2022-08-12T02:10:49.191Z,0.00
2022-08-12T02:11:37.701Z,0.00
2022-08-12T02:12:36.766Z,0.00
2022-08-12T02:13:48.134Z,0.00
2022-08-12T02:14:37.783Z,0.00
2022-08-12T02:15:36.713Z,0.00
2022-08-12T02:16:36.746Z,0.00
2022-08-12T02:17:55.029Z,0.00
2022-08-12T02:19:02.568Z,0.00
2022-08-12T02:19:37.603Z,0.00
2022-08-12T02:20:51.902Z,0.00
2022-08-12T02:21:37.570Z,0.00
2022-08-12T02:22:36.600Z,0.00
2022-08-12T02:23:36.573Z,0.00
2022-08-12T02:24:36.576Z,0.00
2022-08-12T02:25:36.555Z,0.00
2022-08-12T02:26:36.574Z,0.00
2022-08-12T02:27:36.544Z,0.00
2022-08-12T02:28:36.526Z,0.00
2022-08-12T02:29:36.545Z,0.00
2022-08-12T02:30:42.212Z,0.00
2022-08-12T02:31:37.542Z,0.00
2022-08-12T02:32:36.499Z,0.00
2022-08-12T02:33:36.494Z,0.00
2022-08-12T02:34:36.525Z,0.00
2022-08-12T02:35:36.550Z,0.00
2022-08-12T02:36:36.509Z,0.00
2022-08-12T02:37:36.457Z,0.00
2022-08-12T02:38:36.455Z,0.00
2022-08-12T02:39:36.493Z,0.00
2022-08-12T02:40:36.452Z,0.00
2022-08-12T02:41:36.472Z,0.00
2022-08-12T02:42:36.427Z,0.00
2022-08-12T02:43:36.430Z,0.00
2022-08-12T02:44:36.407Z,0.00
2022-08-12T02:45:36.403Z,0.00
2022-08-12T02:46:36.417Z,0.00
2022-08-12T02:47:58.530Z,0.00
2022-08-12T02:48:37.379Z,0.00
2022-08-12T02:49:36.400Z,0.00
2022-08-12T02:50:36.383Z,0.00
2022-08-12T02:51:36.366Z,0.00
2022-08-12T02:52:36.355Z,0.00
2022-08-12T02:53:36.370Z,0.00
2022-08-12T02:54:36.376Z,0.00
2022-08-12T02:55:36.351Z,0.00
2022-08-12T02:56:37.260Z,0.00
2022-08-12T02:57:36.320Z,0.00
2022-08-12T02:58:36.359Z,0.00
2022-08-12T02:59:37.317Z,0.00
2022-08-12T03:00:36.318Z,0.00
2022-08-12T03:01:36.305Z,0.00
2022-08-12T03:02:37.274Z,0.00
2022-08-12T03:03:36.278Z,0.00
2022-08-12T03:04:40.080Z,0.00
2022-08-12T03:05:38.514Z,0.00
2022-08-12T03:06:37.250Z,0.00
2022-08-12T03:07:55.837Z,0.00
2022-08-12T03:08:37.234Z,0.00
2022-08-12T03:09:43.095Z,0.00
2022-08-12T03:10:37.949Z,0.00
2022-08-12T03:11:41.678Z,0.00
2022-08-12T03:12:40.073Z,0.00
2022-08-12T03:13:37.194Z,0.00
2022-08-12T03:14:36.205Z,0.00
2022-08-12T03:15:36.196Z,0.00
2022-08-12T03:16:36.926Z,0.00
2022-08-12T03:17:36.174Z,0.00
2022-08-12T03:18:36.155Z,0.00
2022-08-12T03:19:36.155Z,4.00
2022-08-12T03:20:37.161Z,4.00
2022-08-12T03:21:52.798Z,0.00
2022-08-12T03:22:37.138Z,0.00
2022-08-12T03:23:36.130Z,4.00
2022-08-12T03:24:36.147Z,4.00
2022-08-12T03:25:36.108Z,4.00
2022-08-12T03:26:36.164Z,4.00
2022-08-12T03:27:36.093Z,4.00
2022-08-12T03:28:36.092Z,8.00
2022-08-12T03:29:49.841Z,4.00
2022-08-12T03:30:37.068Z,4.00
2022-08-12T03:31:36.066Z,8.00
2022-08-12T03:32:37.060Z,8.00
2022-08-12T03:33:36.068Z,8.00
2022-08-12T03:34:36.062Z,12.00
2022-08-12T03:35:40.332Z,12.00
2022-08-12T03:36:37.754Z,16.00
2022-08-12T03:37:36.057Z,16.00
2022-08-12T03:38:36.020Z,20.00
2022-08-12T03:39:37.199Z,24.00
2022-08-12T03:40:35.991Z,24.00
2022-08-12T03:41:35.983Z,32.00
2022-08-12T03:42:36.364Z,36.00
2022-08-12T03:43:35.975Z,40.00
2022-08-12T03:44:35.980Z,48.00
2022-08-12T03:45:35.946Z,56.00
2022-08-12T04:01:40.641Z,316.00
2022-08-12T04:02:37.683Z,344.00
2022-08-12T04:03:38.825Z,372.00
2022-08-12T04:04:38.790Z,404.00
2022-08-12T04:05:55.781Z,440.00
2022-08-12T04:06:39.826Z,472.00
2022-08-12T04:07:38.781Z,512.00
2022-08-12T04:08:39.752Z,552.00
2022-08-12T04:09:38.771Z,592.00
2022-08-12T04:10:38.773Z,640.00
2022-08-12T04:11:46.921Z,684.00
2022-08-12T04:12:39.766Z,732.00
2022-08-12T04:13:38.741Z,784.00
2022-08-12T04:14:38.746Z,840.00
2022-08-12T04:15:38.720Z,892.00
2022-08-12T04:16:38.724Z,952.00
2022-08-12T04:17:38.724Z,1012.00
2022-08-12T04:18:39.737Z,1072.00
2022-08-12T04:19:38.734Z,1140.00
2022-08-12T04:20:38.719Z,1204.00
2022-08-12T04:21:38.741Z,1272.00
2022-08-12T04:22:39.767Z,1348.00
2022-08-12T04:23:39.453Z,1420.00
2022-08-12T04:24:40.843Z,1496.00
2022-08-12T04:25:38.689Z,1568.00
2022-08-12T04:26:38.739Z,1644.00
2022-08-12T04:27:38.645Z,1728.00
2022-08-12T04:28:38.744Z,1808.00
2022-08-12T04:30:30.734Z,1892.00
2022-08-12T04:30:39.656Z,1976.00
2022-08-12T04:31:38.628Z,2064.00
2022-08-12T04:32:43.719Z,2156.00
2022-08-12T04:33:40.653Z,2248.00
2022-08-12T04:34:38.727Z,2412.00
2022-08-12T04:35:38.735Z,3188.00
2022-08-12T04:36:38.558Z,5468.00
2022-08-12T04:37:58.724Z,8136.00
2022-08-12T04:38:39.595Z,12352.00
2022-08-12T04:39:38.592Z,15296.00
2022-08-12T04:40:38.537Z,16640.00
2022-08-12T04:41:38.520Z,17568.00
2022-08-12T04:42:39.637Z,18944.00
2022-08-12T04:43:53.749Z,20160.00
2022-08-12T04:44:40.375Z,20896.00
2022-08-12T04:45:38.510Z,21920.00
2022-08-12T04:46:38.474Z,22656.00
2022-08-12T04:47:38.563Z,22720.00
2022-08-12T04:48:38.524Z,23168.00
2022-08-12T04:49:38.506Z,24800.00
2022-08-12T04:50:38.472Z,25984.00
2022-08-12T04:51:38.482Z,27232.00
2022-08-12T04:52:38.461Z,27648.00
2022-08-12T04:53:38.462Z,28608.00
2022-08-12T04:54:38.451Z,29952.00
2022-08-12T04:55:38.408Z,30848.00
2022-08-12T04:56:38.420Z,31264.00
2022-08-12T04:57:38.398Z,32544.00
2022-08-12T04:58:38.396Z,33184.00
2022-08-12T04:59:47.311Z,33504.00
2022-08-12T05:00:39.413Z,35488.00
2022-08-12T05:01:38.377Z,35456.00
2022-08-12T05:02:38.441Z,35776.00
2022-08-12T05:03:46.412Z,36544.00
2022-08-12T05:04:39.356Z,37824.00
2022-08-12T05:05:38.333Z,38944.00
2022-08-12T05:06:38.323Z,38528.00
2022-08-12T05:07:47.832Z,39168.00
2022-08-12T05:08:39.325Z,40160.00
2022-08-12T05:09:59.932Z,41088.00
2022-08-12T05:10:39.284Z,42176.00
2022-08-12T05:11:38.272Z,43392.00
2022-08-12T05:12:39.695Z,43168.00
2022-08-12T05:13:38.270Z,43104.00
2022-08-12T05:14:38.282Z,44224.00
2022-08-12T05:15:38.263Z,46304.00
2022-08-12T05:16:39.264Z,48096.00
2022-08-12T05:17:38.253Z,47712.00
2022-08-12T05:18:39.331Z,48416.00
2022-08-12T05:19:38.211Z,49920.00
2022-08-12T05:20:38.204Z,49760.00
2022-08-12T05:21:38.243Z,49920.00
2022-08-12T05:22:38.385Z,51776.00
2022-08-12T05:23:38.233Z,51520.00
2022-08-12T05:24:38.182Z,51456.00
2022-08-12T05:25:38.174Z,52832.00
2022-08-12T05:26:38.167Z,53184.00
2022-08-12T05:27:38.169Z,54560.00
2022-08-12T05:28:39.169Z,54912.00
2022-08-12T05:30:05.568Z,55392.00
2022-08-12T05:30:39.128Z,56160.00
2022-08-12T05:31:42.402Z,55520.00
2022-08-12T05:32:39.280Z,51744.00
2022-08-12T05:33:38.129Z,54080.00
2022-08-12T05:34:38.097Z,58304.00
2022-08-12T05:35:38.112Z,59680.00
2022-08-12T05:36:38.153Z,59456.00
2022-08-12T05:37:38.095Z,60224.00
2022-08-12T05:38:38.097Z,62752.00
2022-08-12T05:39:38.106Z,60704.00
2022-08-12T05:40:38.057Z,60992.00
2022-08-12T05:41:38.042Z,62688.00
2022-08-12T05:42:38.066Z,62976.00
2022-08-12T05:43:38.022Z,63808.00
2022-08-12T05:44:38.054Z,63872.00
2022-08-12T05:45:42.840Z,64096.00
2022-08-12T05:46:40.023Z,64416.00
2022-08-12T05:47:53.839Z,65984.00
2022-08-12T05:48:38.997Z,67296.00
2022-08-12T05:49:38.020Z,68544.00
2022-08-12T05:50:37.991Z,67904.00
2022-08-12T05:51:39.667Z,69152.00
2022-08-12T05:52:37.982Z,69504.00
2022-08-12T05:53:37.960Z,70720.00
2022-08-12T05:54:56.527Z,72160.00
2022-08-12T05:55:39.954Z,73056.00
2022-08-12T05:56:37.953Z,73376.00
2022-08-12T05:57:37.950Z,73120.00
2022-08-12T05:58:37.960Z,73728.00
2022-08-12T05:59:37.955Z,74912.00
2022-08-12T06:00:37.968Z,75360.00
2022-08-12T06:02:12.058Z,77536.00
2022-08-12T06:02:39.080Z,76416.00
2022-08-12T06:03:37.980Z,76128.00
2022-08-12T06:04:37.901Z,75744.00
2022-08-12T06:05:52.586Z,74560.00
2022-08-12T06:06:39.658Z,76064.00
2022-08-12T06:08:02.215Z,74976.00
2022-08-12T06:08:38.850Z,76000.00
2022-08-12T06:09:37.853Z,75456.00
2022-08-12T06:10:37.892Z,72640.00
2022-08-12T06:11:37.907Z,74848.00
2022-08-12T06:12:37.846Z,77440.00
2022-08-12T06:13:54.028Z,76960.00
2022-08-12T06:14:39.477Z,76736.00
2022-08-12T06:15:37.909Z,80384.00
2022-08-12T06:16:37.793Z,80064.00
2022-08-12T06:17:37.830Z,77888.00
2022-08-12T06:18:37.800Z,76416.00
2022-08-12T06:20:27.772Z,77600.00
2022-08-12T06:20:38.783Z,79072.00
2022-08-12T06:21:37.778Z,78496.00
2022-08-12T06:22:37.768Z,79360.00
2022-08-12T06:23:42.297Z,79648.00
2022-08-12T06:24:39.739Z,79968.00
2022-08-12T06:25:37.740Z,80192.00
2022-08-12T06:26:37.731Z,80192.00
2022-08-12T06:27:37.757Z,80320.00
2022-08-12T06:28:38.729Z,82336.00
2022-08-12T06:30:09.040Z,81568.00
2022-08-12T06:30:39.720Z,80096.00
2022-08-12T06:31:38.712Z,82400.00
2022-08-12T06:32:42.763Z,82528.00
2022-08-12T06:33:55.389Z,82496.00
2022-08-12T06:35:25.790Z,80864.00
2022-08-12T06:35:48.182Z,80832.00
2022-08-12T06:36:38.741Z,79744.00
2022-08-12T06:37:37.649Z,78048.00
2022-08-12T06:38:37.633Z,78080.00
2022-08-12T06:39:37.710Z,77088.00
2022-08-12T06:40:37.619Z,77152.00
2022-08-12T06:41:37.622Z,78944.00
2022-08-12T06:42:37.626Z,79136.00
2022-08-12T06:44:06.166Z,79200.00
2022-08-12T06:44:38.619Z,79136.00
2022-08-12T06:45:45.383Z,79904.00
2022-08-12T06:46:38.595Z,78048.00
2022-08-12T06:47:37.607Z,77696.00
2022-08-12T06:48:37.590Z,80352.00
2022-08-12T06:49:37.609Z,79712.00
2022-08-12T06:50:40.027Z,78240.00
2022-08-12T06:51:38.633Z,78304.00
2022-08-12T06:52:37.552Z,79008.00
2022-08-12T06:53:37.554Z,79040.00
2022-08-12T06:54:37.569Z,77888.00
2022-08-12T06:55:37.572Z,77120.00
2022-08-12T06:57:03.107Z,80480.00
2022-08-12T06:58:06.255Z,79072.00
2022-08-12T06:58:38.509Z,77920.00
2022-08-12T06:59:37.519Z,76384.00
2022-08-12T07:00:37.528Z,77472.00
2022-08-12T07:01:37.489Z,78144.00
2022-08-12T07:02:37.541Z,78240.00
2022-08-12T07:03:37.475Z,77728.00
2022-08-12T07:04:38.787Z,76768.00
2022-08-12T07:05:37.470Z,76384.00
2022-08-12T07:06:37.473Z,78432.00
2022-08-12T07:07:37.449Z,79648.00
2022-08-12T07:08:37.451Z,77024.00
2022-08-12T07:10:02.816Z,73632.00
2022-08-12T07:10:38.414Z,77888.00
2022-08-12T07:11:37.402Z,80384.00
2022-08-12T07:12:37.557Z,78624.00
2022-08-12T07:13:37.440Z,80064.00
2022-08-12T07:14:41.027Z,79328.00
2022-08-12T07:15:38.372Z,78432.00
2022-08-12T07:16:37.374Z,78816.00
2022-08-12T07:17:38.183Z,78560.00
2022-08-12T07:18:37.358Z,78528.00
2022-08-12T07:19:45.091Z,79616.00
2022-08-12T07:20:52.286Z,80736.00
2022-08-12T07:21:59.552Z,80864.00
2022-08-12T07:22:38.385Z,81216.00
2022-08-12T07:23:37.350Z,81792.00
2022-08-12T07:24:37.320Z,81504.00
2022-08-12T07:25:40.940Z,80896.00
2022-08-12T07:26:37.318Z,79424.00
2022-08-12T07:27:37.307Z,80096.00
2022-08-12T07:28:37.293Z,81824.00
2022-08-12T07:29:59.473Z,82464.00
2022-08-12T07:30:38.320Z,80864.00
2022-08-12T07:31:37.309Z,80768.00
2022-08-12T07:32:37.330Z,80448.00
2022-08-12T07:33:37.973Z,79808.00
2022-08-12T07:34:37.260Z,80416.00
2022-08-12T07:35:37.296Z,80512.00
2022-08-12T07:36:37.243Z,80544.00
2022-08-12T07:37:37.214Z,80608.00
2022-08-12T07:38:37.220Z,79488.00
2022-08-12T07:39:50.866Z,79616.00
2022-08-12T07:40:38.238Z,79456.00
2022-08-12T07:41:37.196Z,80512.00
2022-08-12T07:42:37.173Z,79680.00
2022-08-12T07:43:39.374Z,80480.00
2022-08-12T07:44:37.216Z,80288.00
2022-08-12T07:45:37.200Z,79456.00
2022-08-12T07:46:37.168Z,79968.00
2022-08-12T07:47:37.152Z,78592.00
2022-08-12T07:48:37.139Z,76864.00
2022-08-12T07:50:03.201Z,75520.00
2022-08-12T07:50:38.162Z,76736.00
2022-08-12T07:51:37.128Z,77696.00
2022-08-12T07:52:37.135Z,75552.00
2022-08-12T07:53:47.677Z,78432.00
2022-08-12T07:54:39.125Z,76384.00
2022-08-12T07:55:37.112Z,77600.00
2022-08-12T07:56:37.109Z,78624.00
2022-08-12T07:57:37.096Z,75872.00
2022-08-12T07:58:37.109Z,75680.00
2022-08-12T07:59:37.990Z,76192.00
2022-08-12T08:00:37.079Z,76352.00
2022-08-12T08:01:38.113Z,76128.00
2022-08-12T08:02:38.674Z,77248.00
2022-08-12T08:03:37.028Z,76352.00
2022-08-12T08:04:38.849Z,76384.00
2022-08-12T08:05:37.025Z,76992.00
2022-08-12T08:06:37.098Z,76256.00
2022-08-12T08:07:38.158Z,75520.00
2022-08-12T08:08:37.012Z,75648.00
2022-08-12T08:09:37.001Z,74624.00
2022-08-12T08:10:37.044Z,74880.00
2022-08-12T08:11:37.017Z,74752.00
2022-08-12T08:12:37.000Z,74432.00
2022-08-12T08:13:36.971Z,74016.00
2022-08-12T08:14:36.964Z,73248.00
2022-08-12T08:16:02.854Z,74816.00
2022-08-12T08:16:38.962Z,73056.00
2022-08-12T08:17:36.963Z,73632.00
2022-08-12T08:18:37.550Z,74816.00
2022-08-12T08:20:08.849Z,74912.00
2022-08-12T08:20:36.942Z,73248.00
2022-08-12T08:21:36.914Z,72544.00
2022-08-12T08:22:41.741Z,70496.00
2022-08-12T08:23:38.427Z,70144.00
2022-08-12T08:24:36.902Z,69312.00
2022-08-12T08:25:37.934Z,73056.00
2022-08-12T08:26:37.888Z,71936.00
2022-08-12T08:27:36.874Z,69632.00
2022-08-12T08:28:36.966Z,71104.00
2022-08-12T08:29:36.877Z,70528.00
2022-08-12T08:30:36.905Z,59552.00
2022-08-12T08:31:37.517Z,58336.00
2022-08-12T08:32:36.861Z,68992.00
2022-08-12T08:34:05.071Z,70368.00
2022-08-12T08:34:54.286Z,70464.00
2022-08-12T08:35:47.620Z,69472.00
2022-08-12T08:36:37.835Z,70144.00
2022-08-12T08:37:37.743Z,68608.00
2022-08-12T08:38:36.819Z,67008.00
2022-08-12T08:39:36.839Z,68768.00
2022-08-12T08:40:36.783Z,67808.00
2022-08-12T08:42:16.166Z,66752.00
2022-08-12T08:42:37.762Z,66336.00
2022-08-12T08:43:44.547Z,66912.00
2022-08-12T08:44:37.797Z,67968.00
2022-08-12T08:45:36.826Z,67328.00
2022-08-12T08:46:36.756Z,68864.00
2022-08-12T08:47:36.737Z,67104.00
2022-08-12T08:48:36.745Z,65280.00
2022-08-12T08:49:37.310Z,65920.00
2022-08-12T08:50:36.734Z,65536.00
2022-08-12T08:51:37.537Z,66944.00
2022-08-12T08:52:39.054Z,67840.00
2022-08-12T08:53:36.707Z,67040.00
2022-08-12T08:54:36.683Z,69696.00
2022-08-12T08:56:03.157Z,113216.00
2022-08-12T08:56:38.725Z,163712.00
2022-08-12T08:57:42.859Z,116384.00
2022-08-12T08:58:37.672Z,45344.00
2022-08-12T08:59:36.664Z,19520.00
2022-08-12T09:00:36.662Z,18400.00
2022-08-12T09:01:37.985Z,18016.00
2022-08-12T09:02:36.697Z,17824.00
2022-08-12T09:05:08.253Z,17344.00
2022-08-12T09:05:12.547Z,17184.00
2022-08-12T09:06:01.764Z,17152.00
2022-08-12T09:06:38.022Z,17120.00
2022-08-12T09:07:51.305Z,17024.00
2022-08-12T09:08:37.642Z,16896.00
2022-08-12T09:10:37.601Z,16768.00
2022-08-12T09:12:11.517Z,16672.00
2022-08-12T09:12:37.575Z,16736.00
2022-08-12T09:14:12.960Z,16672.00
2022-08-12T09:14:39.377Z,16832.00
2022-08-12T09:15:36.559Z,16832.00
2022-08-12T09:16:41.307Z,16736.00
2022-08-12T09:17:42.873Z,16640.00
2022-08-12T09:18:37.600Z,16672.00
2022-08-12T09:19:36.526Z,16512.00
2022-08-12T09:20:36.531Z,16512.00
2022-08-12T09:21:54.899Z,16544.00
2022-08-12T09:22:37.490Z,16704.00
2022-08-12T09:24:00.173Z,17088.00
2022-08-12T09:24:37.568Z,17216.00
2022-08-12T09:25:36.495Z,17696.00
2022-08-12T09:26:45.975Z,18432.00
2022-08-12T09:27:58.021Z,19360.00
2022-08-12T09:28:37.813Z,20896.00
2022-08-12T09:30:10.418Z,25408.00
2022-08-12T09:30:41.220Z,31712.00
2022-08-12T09:32:04.137Z,34272.00
2022-08-12T09:33:05.288Z,33024.00
2022-08-12T09:34:28.905Z,30208.00
2022-08-12T09:34:42.513Z,23648.00
2022-08-12T09:35:42.747Z,19520.00
2022-08-12T09:36:57.991Z,18304.00
2022-08-12T09:37:57.989Z,17760.00
2022-08-12T09:38:37.389Z,17472.00
2022-08-12T09:40:05.067Z,17472.00
2022-08-12T09:42:07.686Z,17088.00
2022-08-12T09:42:32.376Z,16864.00
2022-08-12T09:42:43.318Z,16896.00
2022-08-12T09:43:37.445Z,16768.00
2022-08-12T09:44:40.026Z,16448.00
2022-08-12T09:46:11.587Z,16224.00
2022-08-12T09:46:37.378Z,16320.00
2022-08-12T09:47:36.323Z,16320.00
2022-08-12T09:48:36.657Z,15876.00
2022-08-12T09:49:42.000Z,15612.00
2022-08-12T09:50:38.352Z,15580.00
2022-08-12T09:51:37.259Z,15504.00
2022-08-12T09:52:36.307Z,15296.00
2022-08-12T09:54:34.773Z,15004.00
2022-08-12T09:54:37.407Z,14792.00
2022-08-12T09:56:07.183Z,14640.00
2022-08-12T09:56:59.942Z,14576.00
2022-08-12T09:58:46.418Z,14168.00
2022-08-12T09:58:57.376Z,14000.00
2022-08-12T10:00:15.704Z,13948.00
2022-08-12T10:00:48.474Z,13932.00
2022-08-12T10:02:42.577Z,13624.00
2022-08-12T10:02:44.866Z,13340.00
2022-08-12T10:03:37.297Z,13112.00
2022-08-12T10:04:37.315Z,12932.00
2022-08-12T10:06:19.191Z,12836.00
2022-08-12T10:06:54.814Z,12688.00
2022-08-12T10:07:39.699Z,12608.00
2022-08-12T10:08:36.185Z,12376.00
2022-08-12T10:09:58.529Z,12288.00
2022-08-12T10:10:42.003Z,12420.00
2022-08-12T10:12:05.545Z,12300.00
2022-08-12T10:12:37.136Z,12224.00
2022-08-12T10:13:41.144Z,11980.00
2022-08-12T10:14:37.150Z,11960.00
2022-08-12T10:16:01.765Z,11912.00
2022-08-12T10:16:39.629Z,11732.00
2022-08-12T10:18:06.169Z,11728.00
2022-08-12T10:18:37.103Z,11648.00
2022-08-12T10:19:37.169Z,11624.00
2022-08-12T10:20:36.246Z,11552.00
2022-08-12T10:21:37.592Z,11508.00
2022-08-12T10:22:40.193Z,11316.00
2022-08-12T10:23:40.775Z,11532.00
2022-08-12T10:24:37.082Z,11300.00
2022-08-12T10:26:34.220Z,11160.00
2022-08-12T10:26:39.332Z,11136.00
2022-08-12T10:28:00.789Z,11088.00
2022-08-12T10:28:38.407Z,11024.00
2022-08-12T10:30:38.975Z,11012.00
2022-08-12T10:30:39.461Z,10932.00
2022-08-12T10:32:15.697Z,10944.00
2022-08-12T10:32:43.265Z,11032.00
2022-08-12T10:33:50.678Z,10868.00
2022-08-12T10:34:37.037Z,10692.00
2022-08-12T10:35:38.212Z,10572.00
2022-08-12T10:36:40.870Z,10424.00
2022-08-12T10:38:37.641Z,10340.00
2022-08-12T10:38:41.351Z,10288.00
2022-08-12T10:40:01.879Z,10384.00
2022-08-12T10:40:37.811Z,10248.00
2022-08-12T10:41:57.674Z,10156.00
2022-08-12T10:42:36.931Z,10244.00
2022-08-12T10:43:55.559Z,10088.00
2022-08-12T10:44:36.923Z,10020.00
2022-08-12T10:45:38.476Z,9932.00
2022-08-12T10:46:35.914Z,9884.00
2022-08-12T10:48:15.973Z,9852.00
2022-08-12T10:48:36.925Z,9752.00
2022-08-12T10:50:03.226Z,9704.00
2022-08-12T10:50:56.655Z,9848.00
2022-08-12T10:51:51.811Z,9680.00
2022-08-12T10:52:38.164Z,9592.00
2022-08-12T10:53:45.068Z,9540.00
2022-08-12T10:54:36.951Z,9504.00
2022-08-12T10:55:35.861Z,9448.00
2022-08-12T10:56:35.829Z,9416.00
2022-08-12T10:58:15.434Z,9380.00
2022-08-12T10:58:37.497Z,9360.00
2022-08-12T11:00:29.713Z,9340.00
2022-08-12T11:00:45.261Z,9348.00
2022-08-12T11:04:19.351Z,9332.00
2022-08-12T11:04:25.217Z,9256.00
2022-08-12T11:04:34.324Z,9236.00
2022-08-12T11:04:44.789Z,9216.00
2022-08-12T11:07:07.467Z,9196.00
2022-08-12T11:07:07.902Z,9208.00
2022-08-12T11:08:35.853Z,9144.00
2022-08-12T11:08:42.789Z,9200.00
2022-08-12T11:09:41.487Z,9064.00
2022-08-12T11:10:36.757Z,8968.00
2022-08-12T11:12:36.833Z,9040.00
2022-08-12T11:12:59.837Z,8988.00
2022-08-12T11:13:46.350Z,9060.00
2022-08-12T11:14:50.374Z,9040.00
2022-08-12T11:16:18.739Z,8952.00
2022-08-12T11:16:37.591Z,9036.00
2022-08-12T11:17:53.902Z,8732.00
2022-08-12T11:18:36.683Z,8860.00
2022-08-12T11:19:35.723Z,8792.00
2022-08-12T11:20:35.689Z,8964.00
2022-08-12T11:21:56.301Z,8836.00
2022-08-12T11:22:37.430Z,8660.00
2022-08-12T11:23:37.451Z,8728.00
2022-08-12T11:24:35.639Z,8720.00
2022-08-12T11:25:55.892Z,8720.00
2022-08-12T11:26:36.646Z,8768.00
2022-08-12T11:27:35.681Z,8744.00
2022-08-12T11:28:37.432Z,8812.00
2022-08-12T11:30:01.817Z,8772.00
2022-08-12T11:30:36.640Z,8736.00
2022-08-12T11:31:40.869Z,8768.00
2022-08-12T11:32:38.477Z,8848.00
2022-08-12T11:34:04.453Z,8956.00
2022-08-12T11:34:53.452Z,8752.00
2022-08-12T11:35:37.041Z,8748.00
2022-08-12T11:36:39.375Z,8740.00
2022-08-12T11:37:57.646Z,8784.00
2022-08-12T11:38:36.520Z,8992.00
2022-08-12T11:40:37.579Z,9136.00
2022-08-12T11:41:36.499Z,9136.00
2022-08-12T11:42:35.733Z,9060.00
2022-08-12T11:43:57.985Z,8976.00
2022-08-12T11:44:43.157Z,8896.00
2022-08-12T11:45:38.962Z,8736.00
2022-08-12T11:46:35.485Z,8940.00
2022-08-12T11:47:35.471Z,8812.00
2022-08-12T11:48:50.936Z,8804.00
2022-08-12T11:49:36.490Z,8876.00
2022-08-12T11:50:35.429Z,8876.00
2022-08-12T11:51:39.768Z,8916.00
2022-08-12T11:52:55.958Z,9060.00
2022-08-12T11:53:59.346Z,8880.00
2022-08-12T11:54:36.412Z,8852.00
2022-08-12T11:55:35.405Z,9004.00
2022-08-12T11:56:38.784Z,8896.00
2022-08-12T11:58:17.294Z,8900.00
2022-08-12T12:00:15.254Z,8880.00
2022-08-12T12:02:02.691Z,8780.00
2022-08-12T12:02:36.499Z,8864.00
2022-08-12T12:03:44.131Z,8868.00
2022-08-12T12:04:36.358Z,9108.00
2022-08-12T12:05:41.928Z,8964.00
2022-08-12T12:06:36.345Z,9088.00
2022-08-12T12:08:38.743Z,8996.00
2022-08-12T12:08:42.690Z,8968.00
2022-08-12T12:09:51.902Z,8852.00
2022-08-12T12:10:36.299Z,8900.00
2022-08-12T12:11:48.621Z,8928.00
2022-08-12T12:12:36.352Z,8892.00
2022-08-12T12:14:06.384Z,8672.00
2022-08-12T12:14:38.217Z,8936.00
2022-08-12T12:15:40.810Z,9008.00
2022-08-12T12:16:39.591Z,8908.00
2022-08-12T12:17:38.504Z,8900.00
2022-08-12T12:18:35.244Z,8968.00
2022-08-12T12:19:45.186Z,8916.00
2022-08-12T12:20:36.325Z,8984.00
2022-08-12T12:21:48.603Z,8980.00
2022-08-12T12:22:37.120Z,9088.00
2022-08-12T12:23:36.480Z,9168.00
2022-08-12T12:24:36.092Z,9372.00
2022-08-12T12:25:59.514Z,9488.00
2022-08-12T12:26:38.402Z,9852.00
2022-08-12T12:27:42.273Z,9544.00
2022-08-12T12:28:39.476Z,9652.00
2022-08-12T12:30:13.836Z,9784.00
2022-08-12T12:30:36.190Z,9844.00
2022-08-12T12:32:10.164Z,9896.00
2022-08-12T12:32:36.175Z,5600.00
2022-08-12T12:33:56.876Z,9488.00
2022-08-12T12:34:36.177Z,5692.00
2022-08-12T12:36:16.556Z,5000.00
2022-08-12T12:36:36.164Z,5104.00
2022-08-12T12:38:04.710Z,4988.00
2022-08-12T12:38:36.122Z,4996.00
2022-08-12T12:39:54.751Z,9516.00
2022-08-12T12:40:39.546Z,9556.00
2022-08-12T12:42:42.587Z,4832.00
2022-08-12T12:42:42.866Z,6200.00
2022-08-12T12:43:43.488Z,4904.00
2022-08-12T12:44:38.701Z,4992.00
2022-08-12T12:45:36.119Z,8112.00
2022-08-12T12:46:35.070Z,9428.00
2022-08-12T12:47:37.194Z,9352.00
2022-08-12T12:48:35.205Z,9336.00
2022-08-12T12:49:35.074Z,9144.00